createdAt,value
2017-10-19T00:01:26.118Z,8.63
2017-10-19T00:03:54.493Z,6.13
2017-10-19T00:06:22.864Z,4.63
2017-10-19T00:08:51.229Z,6.00
2017-10-19T00:11:19.590Z,5.10
2017-10-19T00:13:47.968Z,7.07
2017-10-19T00:16:16.351Z,6.37
2017-10-19T00:18:44.737Z,7.50
2017-10-19T00:21:13.106Z,6.33
2017-10-19T00:23:41.483Z,5.67
2017-10-19T00:26:09.850Z,4.63
2017-10-19T00:28:38.213Z,4.70
2017-10-19T00:31:06.580Z,4.67
2017-10-19T00:33:34.955Z,4.67
2017-10-19T00:36:03.316Z,5.60
2017-10-19T00:38:31.686Z,4.07
2017-10-19T00:41:00.057Z,4.70
2017-10-19T00:43:28.429Z,4.67
2017-10-19T00:45:56.809Z,4.37
2017-10-19T00:48:25.185Z,3.77
2017-10-19T00:50:53.550Z,4.30
2017-10-19T00:53:21.918Z,5.00
2017-10-19T00:55:50.294Z,6.23
2017-10-19T00:58:18.669Z,4.40
2017-10-19T01:00:47.028Z,4.67
2017-10-19T01:03:15.395Z,3.80
2017-10-19T01:05:44.529Z,4.73
2017-10-19T01:08:12.916Z,5.63
2017-10-19T01:10:41.286Z,4.03
2017-10-19T01:13:09.662Z,3.60
2017-10-19T01:15:38.035Z,4.43
2017-10-19T01:18:06.418Z,4.67
2017-10-19T01:20:35.112Z,3.90
2017-10-19T01:23:03.482Z,3.73
2017-10-19T01:25:31.857Z,5.20
2017-10-19T01:28:00.236Z,4.73
2017-10-19T01:30:28.599Z,4.20
2017-10-19T01:32:56.976Z,4.40
2017-10-19T01:35:25.345Z,4.53
2017-10-19T01:37:53.760Z,5.13
2017-10-19T01:40:22.128Z,5.00
2017-10-19T01:42:50.604Z,4.70
2017-10-19T01:45:18.965Z,5.77
2017-10-19T01:47:47.348Z,6.03
2017-10-19T01:50:15.711Z,7.60
2017-10-19T01:52:44.061Z,4.77
2017-10-19T01:55:12.433Z,4.43
2017-10-19T01:57:40.784Z,4.10
2017-10-19T02:00:09.152Z,3.97
2017-10-19T02:02:37.510Z,4.37
2017-10-19T02:05:05.872Z,4.73
2017-10-19T02:07:34.242Z,5.07
2017-10-19T02:10:03.449Z,5.40
2017-10-19T02:12:32.585Z,4.97
2017-10-19T02:15:00.938Z,5.67
2017-10-19T02:17:29.293Z,4.70
2017-10-19T02:19:57.656Z,6.47
2017-10-19T02:22:26.028Z,4.40
2017-10-19T02:24:54.404Z,6.93
2017-10-19T02:27:22.797Z,4.90
2017-10-19T02:29:51.163Z,5.37
2017-10-19T02:32:19.527Z,6.30
2017-10-19T02:34:47.901Z,5.30
2017-10-19T02:37:19.881Z,3.77
2017-10-19T02:39:48.433Z,6.30
2017-10-19T02:42:16.787Z,4.10
2017-10-19T02:44:45.136Z,3.60
2017-10-19T02:47:13.504Z,3.93
2017-10-19T02:49:41.860Z,3.80
2017-10-19T02:52:10.218Z,4.00
2017-10-19T02:54:38.588Z,3.37
2017-10-19T02:57:06.955Z,3.80
2017-10-19T02:59:35.337Z,3.33
2017-10-19T03:02:03.693Z,4.03
2017-10-19T03:04:32.804Z,3.70
2017-10-19T03:07:01.157Z,4.30
2017-10-19T03:09:29.533Z,3.70
2017-10-19T03:11:57.905Z,3.53
2017-10-19T03:14:26.320Z,3.60
2017-10-19T03:16:54.680Z,3.93
2017-10-19T03:19:23.054Z,4.10
2017-10-19T03:21:51.437Z,3.90
2017-10-19T03:24:19.798Z,4.00
2017-10-19T03:26:48.551Z,4.40
2017-10-19T03:29:16.934Z,4.80
2017-10-19T03:31:46.433Z,5.83
2017-10-19T03:34:14.786Z,4.57
2017-10-19T03:36:43.141Z,7.90
2017-10-19T03:39:12.261Z,4.40
2017-10-19T03:41:40.626Z,6.53
2017-10-19T03:44:08.986Z,5.10
2017-10-19T03:46:37.349Z,4.07
2017-10-19T03:49:05.712Z,5.40
2017-10-19T03:51:34.071Z,4.23
2017-10-19T03:54:02.458Z,4.70
2017-10-19T03:56:30.845Z,4.73
2017-10-19T03:58:59.225Z,3.67
2017-10-19T04:01:27.588Z,5.47
2017-10-19T04:03:55.945Z,3.93
2017-10-19T04:06:24.324Z,5.57
2017-10-19T04:08:52.682Z,4.37
2017-10-19T04:11:21.826Z,3.87
2017-10-19T04:13:50.208Z,6.20
2017-10-19T04:16:18.585Z,5.70
2017-10-19T04:18:46.960Z,5.80
2017-10-19T04:21:15.345Z,3.60
2017-10-19T04:23:43.704Z,4.27
2017-10-19T04:26:12.052Z,3.60
2017-10-19T04:28:40.408Z,3.83
2017-10-19T04:31:08.766Z,4.43
2017-10-19T04:33:37.128Z,3.23
2017-10-19T04:36:05.482Z,5.60
2017-10-19T04:38:33.854Z,9.93
2017-10-19T04:41:02.214Z,3.43
2017-10-19T04:43:31.334Z,4.57
2017-10-19T04:45:59.707Z,3.50
2017-10-19T04:48:28.077Z,4.23
2017-10-19T04:50:56.442Z,4.50
2017-10-19T04:53:24.815Z,4.13
2017-10-19T04:55:53.182Z,4.70
2017-10-19T04:58:21.555Z,3.47
2017-10-19T05:00:49.914Z,4.13
2017-10-19T05:03:18.272Z,3.87
2017-10-19T05:05:46.633Z,3.73
2017-10-19T05:08:14.991Z,3.57
2017-10-19T05:10:44.131Z,3.03
2017-10-19T05:13:12.495Z,3.50
2017-10-19T05:15:40.859Z,3.70
2017-10-19T05:18:09.220Z,3.13
2017-10-19T05:20:37.576Z,3.30
2017-10-19T05:23:05.940Z,3.17
2017-10-19T05:25:34.312Z,3.80
2017-10-19T05:28:02.681Z,3.23
2017-10-19T05:30:31.053Z,3.67
2017-10-19T05:32:59.432Z,9.10
2017-10-19T05:35:27.789Z,4.13
2017-10-19T05:37:57.021Z,3.63
2017-10-19T05:40:25.398Z,3.67
2017-10-19T05:42:53.760Z,3.20
2017-10-19T05:45:22.120Z,3.17
2017-10-19T05:47:50.488Z,4.97
2017-10-19T05:50:18.844Z,3.40
2017-10-19T05:52:47.975Z,5.00
2017-10-19T05:55:16.329Z,3.33
2017-10-19T05:57:45.447Z,5.27
2017-10-19T06:00:13.814Z,4.53
2017-10-19T06:02:42.188Z,3.27
2017-10-19T06:05:10.571Z,4.73
2017-10-19T06:07:38.932Z,3.37
2017-10-19T06:10:08.549Z,3.53
2017-10-19T06:12:36.923Z,4.60
2017-10-19T06:15:05.288Z,3.67
2017-10-19T06:17:34.583Z,4.40
2017-10-19T06:20:02.945Z,5.07
2017-10-19T06:22:31.312Z,4.57
2017-10-19T06:24:59.665Z,4.03
2017-10-19T06:27:28.030Z,5.80
2017-10-19T06:29:56.385Z,4.63
2017-10-19T06:32:24.749Z,4.87
2017-10-19T06:34:53.117Z,3.93
2017-10-19T06:37:21.494Z,4.10
2017-10-19T06:39:49.865Z,4.50
2017-10-19T06:42:18.251Z,6.23
2017-10-19T06:44:46.627Z,6.77
2017-10-19T06:47:15.003Z,4.33
2017-10-19T06:49:43.376Z,4.13
2017-10-19T06:52:11.753Z,4.50
2017-10-19T06:54:40.116Z,4.30
2017-10-19T06:57:08.479Z,5.07
2017-10-19T06:59:36.852Z,4.53
2017-10-19T07:02:05.209Z,3.80
2017-10-19T07:04:33.581Z,3.33
2017-10-19T07:07:01.949Z,3.53
2017-10-19T07:09:30.300Z,3.67
2017-10-19T07:11:58.662Z,4.03
2017-10-19T07:14:27.030Z,3.50
2017-10-19T07:16:55.401Z,4.27
2017-10-19T07:19:23.774Z,3.57
2017-10-19T07:21:52.157Z,3.53
2017-10-19T07:24:20.545Z,5.30
2017-10-19T07:26:48.909Z,4.60
2017-10-19T07:29:17.298Z,3.60
2017-10-19T07:31:45.668Z,4.30
2017-10-19T07:34:14.044Z,3.80
2017-10-19T07:36:42.814Z,7.63
2017-10-19T07:39:11.189Z,3.83
2017-10-19T07:41:39.558Z,3.77
2017-10-19T07:44:07.929Z,3.60
2017-10-19T07:46:36.297Z,4.87
2017-10-19T07:49:04.674Z,4.87
2017-10-19T07:51:33.759Z,8.73
2017-10-19T07:54:02.947Z,9.47
2017-10-19T07:56:31.361Z,4.87
2017-10-19T07:59:00.602Z,4.60
2017-10-19T08:01:28.980Z,5.90
2017-10-19T08:03:57.349Z,4.43
2017-10-19T08:06:25.729Z,5.03
2017-10-19T08:08:54.210Z,7.40
2017-10-19T08:11:22.591Z,5.27
2017-10-19T08:13:50.974Z,6.93
2017-10-19T08:16:19.352Z,6.83
2017-10-19T08:18:47.717Z,8.77
2017-10-19T08:21:16.100Z,7.17
2017-10-19T08:23:44.466Z,6.57
2017-10-19T08:26:13.643Z,7.40
2017-10-19T08:28:42.017Z,7.20
2017-10-19T08:31:10.381Z,5.70
2017-10-19T08:33:38.744Z,6.37
2017-10-19T08:36:07.130Z,6.07
2017-10-19T08:38:35.507Z,6.30
2017-10-19T08:41:03.876Z,5.00
2017-10-19T08:43:32.243Z,6.00
2017-10-19T08:46:00.604Z,5.80
2017-10-19T08:48:30.534Z,4.87
2017-10-19T08:50:58.901Z,5.47
2017-10-19T08:53:27.308Z,4.27
2017-10-19T08:55:56.373Z,5.30
2017-10-19T08:58:28.025Z,7.00
2017-10-19T09:00:57.164Z,6.83
2017-10-19T09:03:25.533Z,6.30
2017-10-19T09:05:53.913Z,5.10
2017-10-19T09:08:23.873Z,6.23
2017-10-19T09:10:52.298Z,6.70
2017-10-19T09:13:20.669Z,6.60
2017-10-19T09:15:49.042Z,4.83
2017-10-19T09:18:17.421Z,5.83
2017-10-19T09:20:45.799Z,5.70
2017-10-19T09:23:14.181Z,6.50
2017-10-19T09:25:42.565Z,5.20
2017-10-19T09:28:10.936Z,6.17
2017-10-19T09:31:05.839Z,6.70
2017-10-19T09:33:34.220Z,5.63
2017-10-19T09:36:09.419Z,5.43
2017-10-19T09:38:37.792Z,5.53
2017-10-19T09:41:07.058Z,5.90
2017-10-19T09:43:35.433Z,6.07
2017-10-19T09:46:03.826Z,5.70
2017-10-19T09:48:32.196Z,5.77
2017-10-19T09:51:00.590Z,6.70
2017-10-19T09:53:28.962Z,6.03
2017-10-19T09:55:59.275Z,6.30
2017-10-19T09:58:27.650Z,6.60
2017-10-19T10:00:56.017Z,5.77
2017-10-19T10:03:24.392Z,6.00
2017-10-19T10:05:52.770Z,6.10
2017-10-19T10:08:21.193Z,5.73
2017-10-19T10:10:49.572Z,6.40
2017-10-19T10:13:17.954Z,6.87
2017-10-19T10:15:46.350Z,7.20
2017-10-19T10:18:15.482Z,6.73
2017-10-19T10:20:43.849Z,7.37
2017-10-19T10:23:12.229Z,6.40
2017-10-19T10:25:40.599Z,6.13
2017-10-19T10:28:09.129Z,6.63
2017-10-19T10:30:37.494Z,6.83
2017-10-19T10:33:05.871Z,5.63
2017-10-19T10:35:34.249Z,6.93
2017-10-19T10:38:02.834Z,6.80
2017-10-19T10:40:31.291Z,6.63
2017-10-19T10:42:59.653Z,6.77
2017-10-19T10:45:28.036Z,6.63
2017-10-19T10:47:56.479Z,5.67
2017-10-19T10:50:24.901Z,6.50
2017-10-19T10:52:53.265Z,5.67
2017-10-19T10:55:21.660Z,6.67
2017-10-19T10:57:50.030Z,5.70
2017-10-19T11:00:18.408Z,5.40
2017-10-19T11:02:46.782Z,5.73
2017-10-19T11:05:15.161Z,5.87
2017-10-19T11:07:43.529Z,5.80
2017-10-19T11:10:12.676Z,5.60
2017-10-19T11:12:41.051Z,5.20
2017-10-19T11:15:09.422Z,5.53
2017-10-19T11:17:37.779Z,6.07
2017-10-19T11:20:06.146Z,5.30
2017-10-19T11:22:34.526Z,5.83
2017-10-19T11:25:03.661Z,5.63
2017-10-19T11:27:33.022Z,5.80
2017-10-19T11:30:01.390Z,5.83
2017-10-19T11:32:29.782Z,5.77
2017-10-19T11:34:58.153Z,5.93
2017-10-19T11:37:26.533Z,5.67
2017-10-19T11:39:54.899Z,5.60
2017-10-19T11:42:23.306Z,5.20
2017-10-19T11:44:51.672Z,5.90
2017-10-19T11:47:20.041Z,5.30
2017-10-19T11:49:48.432Z,5.93
2017-10-19T11:52:16.805Z,5.30
2017-10-19T11:54:45.314Z,5.77
2017-10-19T11:57:13.752Z,5.30
2017-10-19T11:59:42.141Z,4.63
2017-10-19T12:02:10.510Z,6.10
2017-10-19T12:04:38.883Z,5.17
2017-10-19T12:07:07.251Z,6.10
2017-10-19T12:09:35.625Z,6.10
2017-10-19T12:12:03.988Z,4.73
2017-10-19T12:14:32.357Z,5.20
2017-10-19T12:17:00.728Z,4.43
2017-10-19T12:19:29.086Z,4.40
2017-10-19T12:21:57.469Z,4.60
2017-10-19T12:24:25.843Z,4.87
2017-10-19T12:26:54.205Z,4.17
2017-10-19T12:29:24.442Z,4.50
2017-10-19T12:31:52.813Z,4.43
2017-10-19T12:34:21.217Z,4.80
2017-10-19T12:36:49.573Z,4.73
2017-10-19T12:39:17.938Z,3.90
2017-10-19T12:41:47.089Z,4.00
2017-10-19T12:44:16.378Z,4.50
2017-10-19T12:46:44.761Z,4.00
2017-10-19T12:49:13.145Z,4.23
2017-10-19T12:51:41.522Z,4.33
2017-10-19T12:54:09.895Z,4.13
2017-10-19T12:56:38.273Z,4.50
2017-10-19T12:59:06.645Z,4.30
2017-10-19T13:01:35.039Z,4.70
2017-10-19T13:04:03.409Z,4.23
2017-10-19T13:06:31.775Z,4.50
2017-10-19T13:09:00.151Z,4.60
2017-10-19T13:11:28.516Z,4.67
2017-10-19T13:13:56.884Z,3.87
2017-10-19T13:16:25.264Z,4.50
2017-10-19T13:18:53.630Z,4.03
2017-10-19T13:21:22.759Z,3.83
2017-10-19T13:23:51.121Z,4.03
2017-10-19T13:26:19.499Z,4.10
2017-10-19T13:28:48.525Z,3.93
2017-10-19T13:31:16.949Z,4.37
2017-10-19T13:33:46.093Z,4.20
2017-10-19T13:36:14.474Z,3.60
2017-10-19T13:38:42.847Z,3.57
2017-10-19T13:41:11.232Z,4.63
2017-10-19T13:43:39.606Z,3.47
2017-10-19T13:46:08.633Z,3.77
2017-10-19T13:48:36.999Z,3.60
2017-10-19T13:51:05.376Z,4.00
2017-10-19T13:53:33.743Z,3.60
2017-10-19T13:56:04.247Z,3.60
2017-10-19T13:58:32.613Z,3.70
2017-10-19T14:01:00.992Z,4.20
2017-10-19T14:03:29.369Z,4.70
2017-10-19T14:05:57.745Z,3.90
2017-10-19T14:08:26.879Z,4.00
2017-10-19T14:10:55.253Z,3.20
2017-10-19T14:13:23.629Z,3.60
2017-10-19T14:15:53.749Z,11.80
2017-10-19T14:18:22.119Z,3.67
2017-10-19T14:20:50.490Z,4.30
2017-10-19T14:23:18.878Z,3.83
2017-10-19T14:25:47.253Z,4.03
2017-10-19T14:28:15.617Z,4.37
2017-10-19T14:30:43.972Z,3.70
2017-10-19T14:33:12.345Z,3.47
2017-10-19T14:35:40.713Z,4.20
2017-10-19T14:38:09.105Z,4.67
2017-10-19T14:40:37.485Z,4.20
2017-10-19T14:43:05.861Z,4.90
2017-10-19T14:45:34.233Z,3.70
2017-10-19T14:48:02.653Z,4.27
2017-10-19T14:50:31.026Z,4.53
2017-10-19T14:52:59.399Z,4.10
2017-10-19T14:55:27.782Z,4.57
2017-10-19T14:57:56.166Z,4.10
2017-10-19T15:00:25.400Z,3.90
2017-10-19T15:02:53.766Z,4.27
2017-10-19T15:05:22.136Z,3.80
2017-10-19T15:07:50.509Z,4.03
2017-10-19T15:10:18.873Z,3.93
2017-10-19T15:12:47.249Z,3.93
2017-10-19T15:15:15.620Z,4.47
2017-10-19T15:17:44.823Z,4.40
2017-10-19T15:20:14.061Z,4.00
2017-10-19T15:22:42.433Z,3.83
2017-10-19T15:25:10.799Z,4.00
2017-10-19T15:27:39.165Z,4.37
2017-10-19T15:30:07.521Z,4.80
2017-10-19T15:32:35.914Z,4.70
2017-10-19T15:35:04.290Z,5.07
2017-10-19T15:37:32.666Z,4.80
2017-10-19T15:40:01.048Z,4.70
2017-10-19T15:42:29.462Z,5.10
2017-10-19T15:44:57.837Z,5.17
2017-10-19T15:47:26.221Z,4.80
2017-10-19T15:49:54.601Z,5.53
2017-10-19T15:52:22.978Z,5.57
2017-10-19T15:54:51.352Z,5.10
2017-10-19T15:57:19.737Z,5.20
2017-10-19T15:59:48.125Z,5.40
2017-10-19T16:02:17.005Z,4.80
2017-10-19T16:04:45.432Z,9.00
2017-10-19T16:07:13.805Z,6.30
2017-10-19T16:09:42.169Z,4.60
2017-10-19T16:12:10.542Z,5.17
2017-10-19T16:14:38.902Z,4.77
2017-10-19T16:17:07.287Z,6.00
2017-10-19T16:19:35.657Z,4.63
2017-10-19T16:22:04.025Z,5.20
2017-10-19T16:24:32.404Z,5.57
2017-10-19T16:27:00.778Z,6.03
2017-10-19T16:29:29.155Z,5.40
2017-10-19T16:31:57.522Z,5.60
2017-10-19T16:34:25.884Z,5.53
2017-10-19T16:36:56.538Z,5.63
2017-10-19T16:39:24.907Z,6.23
2017-10-19T16:41:53.826Z,5.63
2017-10-19T16:44:22.202Z,5.80
2017-10-19T16:46:50.565Z,5.10
2017-10-19T16:49:18.953Z,5.30
2017-10-19T16:51:46.599Z,5.40
2017-10-19T16:54:14.968Z,5.83
2017-10-19T16:56:43.328Z,6.10
2017-10-19T16:59:11.705Z,5.53
2017-10-19T17:01:40.085Z,5.30
2017-10-19T17:04:08.458Z,5.90
2017-10-19T17:06:36.835Z,5.80
2017-10-19T17:09:05.213Z,6.70
2017-10-19T17:11:34.401Z,8.10
2017-10-19T17:14:02.766Z,5.93
2017-10-19T17:16:31.148Z,6.87
2017-10-19T17:18:59.526Z,7.60
2017-10-19T17:21:28.301Z,6.30
2017-10-19T17:23:56.665Z,7.17
2017-10-19T17:26:25.069Z,7.20
2017-10-19T17:28:53.447Z,6.90
2017-10-19T17:31:21.839Z,6.60
2017-10-19T17:33:50.217Z,6.33
2017-10-19T17:36:18.596Z,6.20
2017-10-19T17:38:46.973Z,7.00
2017-10-19T17:41:15.343Z,6.63
2017-10-19T17:43:43.722Z,6.67
2017-10-19T17:46:12.109Z,6.43
2017-10-19T17:48:40.484Z,6.40
2017-10-19T17:51:08.845Z,7.10
2017-10-19T17:53:37.205Z,6.20
2017-10-19T17:56:05.576Z,6.60
2017-10-19T17:58:33.941Z,6.00
2017-10-19T18:01:02.311Z,5.60
2017-10-19T18:03:31.609Z,5.90
2017-10-19T18:05:59.985Z,6.50
2017-10-19T18:08:28.417Z,6.40
2017-10-19T18:10:56.786Z,5.53
2017-10-19T18:13:25.194Z,7.00
2017-10-19T18:15:53.571Z,7.27
2017-10-19T18:18:21.986Z,6.90
2017-10-19T18:20:50.371Z,6.07
2017-10-19T18:23:18.744Z,6.80
2017-10-19T18:25:47.595Z,6.30
2017-10-19T18:28:16.005Z,7.03
2017-10-19T18:30:44.846Z,7.00
2017-10-19T18:33:14.054Z,6.83
2017-10-19T18:35:42.445Z,7.80
2017-10-19T18:38:11.182Z,6.40
2017-10-19T18:40:39.606Z,6.90
2017-10-19T18:43:09.901Z,6.43
2017-10-19T18:45:38.453Z,6.80
2017-10-19T18:48:06.859Z,8.80
2017-10-19T18:50:35.234Z,6.30
2017-10-19T18:53:06.099Z,5.60
2017-10-19T18:55:34.626Z,7.07
2017-10-19T18:58:04.071Z,6.03
2017-10-19T19:00:32.437Z,6.97
2017-10-19T19:03:00.805Z,6.57
2017-10-19T19:05:29.170Z,6.60
2017-10-19T19:07:57.558Z,6.57
2017-10-19T19:10:25.934Z,6.30
2017-10-19T19:12:54.325Z,6.70
2017-10-19T19:15:22.703Z,6.40
2017-10-19T19:17:51.085Z,7.10
2017-10-19T19:20:19.778Z,6.20
2017-10-19T19:22:48.425Z,5.70
2017-10-19T19:25:16.848Z,6.47
2017-10-19T19:27:45.249Z,6.27
2017-10-19T19:30:13.640Z,5.80
2017-10-19T19:32:42.792Z,5.80
2017-10-19T19:35:11.225Z,6.10
2017-10-19T19:37:39.596Z,6.40
2017-10-19T19:40:08.753Z,6.00
2017-10-19T19:42:37.134Z,6.67
2017-10-19T19:45:05.783Z,6.67
2017-10-19T19:47:34.157Z,7.00
2017-10-19T19:50:02.546Z,5.93
2017-10-19T19:52:31.484Z,5.90
2017-10-19T19:55:00.821Z,5.97
2017-10-19T19:57:29.246Z,5.80
2017-10-19T19:59:57.629Z,7.63
2017-10-19T20:02:25.992Z,8.30
2017-10-19T20:04:54.353Z,6.00
2017-10-19T20:07:23.311Z,7.27
2017-10-19T20:09:52.504Z,5.80
2017-10-19T20:12:20.883Z,6.17
2017-10-19T20:14:50.051Z,6.43
2017-10-19T20:17:18.976Z,6.20
2017-10-19T20:19:48.116Z,6.17
2017-10-19T20:22:16.749Z,6.60
2017-10-19T20:24:45.122Z,6.73
2017-10-19T20:27:13.488Z,6.67
2017-10-19T20:29:41.845Z,6.63
2017-10-19T20:32:10.217Z,8.10
2017-10-19T20:34:38.617Z,6.80
2017-10-19T20:37:07.052Z,5.77
2017-10-19T20:39:35.432Z,7.30
2017-10-19T20:42:03.805Z,6.40
2017-10-19T20:44:32.186Z,5.80
2017-10-19T20:47:00.581Z,6.80
2017-10-19T20:49:28.948Z,7.40
2017-10-19T20:51:57.316Z,5.90
2017-10-19T20:54:25.680Z,6.90
2017-10-19T20:56:54.040Z,6.67
2017-10-19T20:59:22.425Z,6.40
2017-10-19T21:01:50.796Z,6.03
2017-10-19T21:04:19.157Z,5.20
2017-10-19T21:06:47.533Z,5.87
2017-10-19T21:09:15.915Z,8.47
2017-10-19T21:11:44.288Z,7.47
2017-10-19T21:14:12.667Z,7.93
2017-10-19T21:16:41.344Z,6.83
2017-10-19T21:19:09.721Z,6.30
2017-10-19T21:21:38.105Z,7.13
2017-10-19T21:24:06.473Z,6.37
2017-10-19T21:26:34.855Z,7.90
2017-10-19T21:29:03.237Z,8.30
2017-10-19T21:31:31.620Z,6.07
2017-10-19T21:33:59.990Z,6.07
2017-10-19T21:36:28.385Z,6.97
2017-10-19T21:38:56.775Z,7.60
2017-10-19T21:41:25.146Z,6.90
2017-10-19T21:43:53.519Z,7.73
2017-10-19T21:46:21.887Z,6.67
2017-10-19T21:48:50.253Z,6.80
2017-10-19T21:51:18.626Z,6.83
2017-10-19T21:53:46.989Z,6.50
2017-10-19T21:56:15.364Z,6.57
2017-10-19T21:58:44.494Z,6.60
2017-10-19T22:01:12.880Z,7.27
2017-10-19T22:03:41.246Z,6.27
2017-10-19T22:06:09.613Z,6.23
2017-10-19T22:08:37.977Z,5.90
2017-10-19T22:11:06.337Z,6.27
2017-10-19T22:13:35.340Z,6.60
2017-10-19T22:16:05.070Z,6.43
2017-10-19T22:18:33.483Z,7.50
2017-10-19T22:21:01.910Z,5.80
2017-10-19T22:23:31.881Z,6.90
2017-10-19T22:26:00.250Z,5.13
2017-10-19T22:28:28.616Z,5.77
2017-10-19T22:30:56.997Z,5.67
2017-10-19T22:33:25.370Z,5.37
2017-10-19T22:35:53.746Z,6.50
2017-10-19T22:38:22.114Z,5.90
2017-10-19T22:40:50.485Z,6.87
2017-10-19T22:43:18.872Z,6.07
2017-10-19T22:45:47.260Z,7.03
2017-10-19T22:48:15.621Z,6.20
2017-10-19T22:50:44.751Z,5.87
2017-10-19T22:53:13.147Z,6.80
2017-10-19T22:55:41.510Z,5.70
2017-10-19T22:58:09.881Z,7.07
2017-10-19T23:00:38.263Z,7.83
2017-10-19T23:03:06.655Z,6.87
2017-10-19T23:05:35.030Z,7.70
2017-10-19T23:08:03.408Z,7.40
2017-10-19T23:10:31.777Z,6.60
2017-10-19T23:13:00.158Z,6.60
2017-10-19T23:15:28.535Z,6.87
2017-10-19T23:17:56.916Z,6.57
2017-10-19T23:20:25.313Z,6.50
2017-10-19T23:22:53.694Z,6.80
2017-10-19T23:25:22.077Z,7.10
2017-10-19T23:27:50.670Z,6.97
2017-10-19T23:30:19.049Z,7.37
2017-10-19T23:32:48.191Z,6.53
2017-10-19T23:35:16.553Z,5.83
2017-10-19T23:37:44.929Z,6.70
2017-10-19T23:40:13.334Z,8.53
2017-10-19T23:42:41.726Z,7.80
2017-10-19T23:45:10.104Z,7.50
2017-10-19T23:47:38.477Z,6.80
2017-10-19T23:50:06.856Z,6.80
2017-10-19T23:52:35.229Z,6.20
2017-10-19T23:55:03.607Z,7.03
2017-10-19T23:57:31.964Z,7.33
